createdAt,value
2023-02-27T00:00:34.217Z,75.95
2023-02-27T00:01:35.461Z,76.43
2023-02-27T00:02:36.749Z,76.71
2023-02-27T00:03:38.133Z,77.00
2023-02-27T00:04:39.369Z,76.78
2023-02-27T00:05:41.632Z,76.68
2023-02-27T00:06:42.866Z,76.60
2023-02-27T00:07:44.440Z,76.57
2023-02-27T00:08:45.725Z,76.73
2023-02-27T00:09:46.981Z,76.31
2023-02-27T00:10:48.564Z,76.49
2023-02-27T00:11:49.807Z,76.78
2023-02-27T00:12:51.063Z,76.67
2023-02-27T00:13:52.313Z,77.12
2023-02-27T00:14:53.538Z,77.22
2023-02-27T00:15:54.994Z,77.21
2023-02-27T00:16:56.277Z,77.39
2023-02-27T00:17:57.961Z,78.07
2023-02-27T00:18:59.222Z,77.85
2023-02-27T00:20:00.550Z,77.67
2023-02-27T00:21:01.734Z,77.72
2023-02-27T00:22:03.007Z,77.88
2023-02-27T00:23:07.495Z,78.07
2023-02-27T00:24:08.774Z,77.53
2023-02-27T00:25:10.560Z,78.28
2023-02-27T00:26:11.822Z,78.14
2023-02-27T00:27:13.151Z,78.26
2023-02-27T00:28:14.515Z,78.09
2023-02-27T00:29:15.774Z,77.66
2023-02-27T00:30:17.028Z,78.42
2023-02-27T00:31:18.357Z,78.25
2023-02-27T00:32:19.669Z,78.21
2023-02-27T00:33:21.829Z,78.24
2023-02-27T00:34:23.137Z,78.49
2023-02-27T00:35:26.428Z,78.27
2023-02-27T00:36:27.645Z,78.81
2023-02-27T00:37:28.941Z,78.57
2023-02-27T00:38:30.227Z,78.39
2023-02-27T00:39:32.106Z,78.83
2023-02-27T00:40:33.335Z,78.90
2023-02-27T00:41:34.647Z,79.37
2023-02-27T00:42:35.919Z,79.50
2023-02-27T00:43:37.193Z,79.32
2023-02-27T00:44:38.445Z,79.20
2023-02-27T00:45:41.266Z,79.62
2023-02-27T00:46:42.533Z,79.72
2023-02-27T00:47:43.857Z,80.11
2023-02-27T00:48:45.156Z,80.06
2023-02-27T00:49:46.400Z,79.88
2023-02-27T00:50:49.167Z,79.87
2023-02-27T00:51:50.498Z,79.66
2023-02-27T00:52:52.100Z,79.65
2023-02-27T00:53:53.340Z,79.82
2023-02-27T00:54:54.610Z,79.61
2023-02-27T00:55:55.928Z,80.14
2023-02-27T00:56:57.240Z,80.25
2023-02-27T00:57:58.515Z,80.72
2023-02-27T00:58:59.768Z,80.62
2023-02-27T01:00:00.985Z,80.52
2023-02-27T01:01:02.278Z,80.77
2023-02-27T01:02:03.630Z,80.71
2023-02-27T01:03:04.903Z,80.88
2023-02-27T01:04:06.410Z,80.39
2023-02-27T01:05:07.889Z,80.78
2023-02-27T01:06:09.228Z,81.11
2023-02-27T01:07:10.509Z,80.81
2023-02-27T01:08:11.804Z,81.06
2023-02-27T01:09:13.080Z,81.32
2023-02-27T01:10:14.736Z,81.22
2023-02-27T01:11:16.160Z,81.27
2023-02-27T01:12:17.420Z,80.74
2023-02-27T01:13:18.788Z,81.70
2023-02-27T01:14:20.147Z,81.58
2023-02-27T01:15:21.430Z,81.97
2023-02-27T01:16:22.951Z,81.46
2023-02-27T01:17:25.709Z,81.93
2023-02-27T01:18:26.952Z,81.57
2023-02-27T01:19:30.174Z,82.00
2023-02-27T01:20:32.693Z,82.02
2023-02-27T01:21:34.019Z,82.02
2023-02-27T01:22:35.261Z,82.46
2023-02-27T01:23:36.509Z,82.50
2023-02-27T01:24:37.859Z,82.31
2023-02-27T01:25:39.152Z,82.69
2023-02-27T01:26:40.498Z,82.32
2023-02-27T01:27:41.788Z,82.22
2023-02-27T01:28:43.195Z,82.45
2023-02-27T01:29:46.258Z,82.51
2023-02-27T01:30:47.959Z,83.07
2023-02-27T01:31:49.461Z,82.86
2023-02-27T01:32:50.775Z,82.73
2023-02-27T01:33:51.987Z,82.74
2023-02-27T01:34:53.259Z,83.19
2023-02-27T01:35:54.671Z,83.04
2023-02-27T01:36:56.035Z,83.35
2023-02-27T01:37:57.298Z,82.90
2023-02-27T01:39:00.157Z,82.99
2023-02-27T01:40:01.412Z,83.28
2023-02-27T01:41:02.713Z,83.38
2023-02-27T01:42:06.437Z,83.46
2023-02-27T01:43:12.895Z,83.40
2023-02-27T01:44:14.221Z,83.45
2023-02-27T01:45:24.163Z,83.63
2023-02-27T01:46:25.947Z,83.34
2023-02-27T01:47:27.222Z,83.46
2023-02-27T01:48:33.976Z,83.31
2023-02-27T01:49:35.272Z,83.22
2023-02-27T01:50:39.522Z,83.39
2023-02-27T01:51:43.570Z,83.81
2023-02-27T01:52:45.884Z,83.73
2023-02-27T01:53:49.577Z,83.58
2023-02-27T01:54:50.843Z,83.89
2023-02-27T01:55:58.254Z,83.90
2023-02-27T01:56:59.533Z,83.93
2023-02-27T01:58:00.943Z,83.68
2023-02-27T01:59:07.344Z,83.97
2023-02-27T02:00:09.000Z,83.56
2023-02-27T02:01:14.084Z,84.08
2023-02-27T02:02:19.718Z,84.39
2023-02-27T02:03:28.447Z,84.06
2023-02-27T02:04:31.286Z,84.82
2023-02-27T02:05:32.993Z,84.83
2023-02-27T02:06:35.981Z,84.63
2023-02-27T02:07:37.852Z,84.60
2023-02-27T02:08:43.508Z,84.76
2023-02-27T02:09:56.088Z,84.82
2023-02-27T02:10:58.232Z,84.96
2023-02-27T02:11:59.962Z,84.69
2023-02-27T02:13:01.375Z,84.92
2023-02-27T02:14:02.634Z,84.61
2023-02-27T02:15:04.809Z,84.59
2023-02-27T02:16:24.186Z,84.17
2023-02-27T02:17:37.724Z,84.94
2023-02-27T02:18:47.561Z,85.15
2023-02-27T02:20:17.569Z,85.12
2023-02-27T02:21:37.368Z,85.22
2023-02-27T02:22:47.323Z,84.91
2023-02-27T02:24:04.181Z,85.01
2023-02-27T02:25:05.457Z,85.17
2023-02-27T02:26:12.597Z,85.11
2023-02-27T02:27:21.062Z,85.12
2023-02-27T02:28:45.884Z,85.44
2023-02-27T02:30:00.175Z,85.18
2023-02-27T02:31:15.609Z,85.39
2023-02-27T02:32:37.408Z,85.96
2023-02-27T02:33:41.495Z,86.11
2023-02-27T02:34:54.764Z,86.04
2023-02-27T02:36:06.286Z,85.49
2023-02-27T02:37:19.115Z,85.94
2023-02-27T02:38:39.090Z,86.13
2023-02-27T02:39:51.927Z,85.62
2023-02-27T02:41:09.901Z,86.08
2023-02-27T02:42:16.823Z,86.10
2023-02-27T02:43:35.673Z,86.22
2023-02-27T02:44:49.293Z,86.23
2023-02-27T02:45:53.286Z,86.25
2023-02-27T02:47:02.115Z,86.05
2023-02-27T02:48:23.766Z,86.15
2023-02-27T02:49:28.152Z,86.29
2023-02-27T02:50:34.918Z,86.06
2023-02-27T02:51:54.697Z,85.98
2023-02-27T02:53:21.661Z,85.87
2023-02-27T02:54:36.270Z,85.87
2023-02-27T02:55:40.600Z,85.69
2023-02-27T02:56:56.601Z,85.74
2023-02-27T02:58:04.155Z,85.88
2023-02-27T02:59:12.851Z,85.56
2023-02-27T03:00:17.276Z,85.85
2023-02-27T03:01:23.337Z,85.75
2023-02-27T03:02:29.911Z,86.19
2023-02-27T03:03:34.215Z,85.73
2023-02-27T03:04:38.632Z,85.69
2023-02-27T03:05:53.790Z,85.92
2023-02-27T03:07:04.367Z,86.30
2023-02-27T03:08:08.957Z,86.16
2023-02-27T03:09:22.096Z,85.83
2023-02-27T03:10:36.206Z,86.34
2023-02-27T03:11:39.957Z,86.33
2023-02-27T03:12:44.848Z,86.03
2023-02-27T03:13:46.049Z,86.62
2023-02-27T03:15:02.604Z,86.59
2023-02-27T03:16:09.844Z,86.69
2023-02-27T03:17:15.240Z,87.18
2023-02-27T03:18:19.625Z,86.86
2023-02-27T03:19:27.764Z,86.35
2023-02-27T03:20:35.035Z,86.88
2023-02-27T03:21:38.714Z,86.69
2023-02-27T03:22:42.508Z,86.70
2023-02-27T03:23:45.055Z,86.76
2023-02-27T03:24:46.747Z,86.37
2023-02-27T03:25:49.786Z,86.17
2023-02-27T03:26:52.675Z,86.67
2023-02-27T03:27:57.111Z,86.84
2023-02-27T03:29:06.105Z,86.74
2023-02-27T03:30:10.127Z,86.81
2023-02-27T03:31:20.106Z,86.80
2023-02-27T03:32:29.754Z,87.22
2023-02-27T03:33:33.298Z,87.53
2023-02-27T03:34:35.814Z,87.19
2023-02-27T03:35:57.501Z,87.35
2023-02-27T03:36:58.697Z,87.71
2023-02-27T03:38:18.598Z,87.80
2023-02-27T03:39:42.839Z,87.62
2023-02-27T03:40:51.284Z,87.55
2023-02-27T03:41:56.100Z,87.47
2023-02-27T03:43:19.949Z,86.93
2023-02-27T03:44:33.461Z,87.60
2023-02-27T03:45:53.486Z,87.93
2023-02-27T03:46:54.907Z,87.67
2023-02-27T03:47:57.098Z,87.38
2023-02-27T03:48:58.415Z,87.13
2023-02-27T03:49:59.895Z,87.67
2023-02-27T03:51:01.095Z,87.60
2023-02-27T03:52:02.410Z,87.32
2023-02-27T03:53:06.394Z,87.75
2023-02-27T03:54:13.716Z,87.47
2023-02-27T03:55:22.897Z,87.46
2023-02-27T03:56:27.954Z,87.52
2023-02-27T03:57:30.519Z,87.68
2023-02-27T03:58:32.110Z,88.03
2023-02-27T03:59:34.170Z,87.91
2023-02-27T04:00:36.256Z,87.48
2023-02-27T04:01:37.657Z,87.84
2023-02-27T04:02:41.053Z,87.84
2023-02-27T04:03:47.805Z,87.67
2023-02-27T04:04:53.219Z,87.71
2023-02-27T04:06:14.773Z,87.42
2023-02-27T04:07:23.501Z,87.65
2023-02-27T04:08:27.691Z,87.73
2023-02-27T04:09:35.449Z,87.74
2023-02-27T04:10:39.733Z,88.31
2023-02-27T04:11:56.377Z,87.88
2023-02-27T04:13:12.937Z,87.77
2023-02-27T04:14:29.390Z,87.32
2023-02-27T04:15:56.865Z,87.50
2023-02-27T04:17:02.510Z,87.69
2023-02-27T04:18:03.724Z,87.93
2023-02-27T04:19:31.893Z,88.25
2023-02-27T04:20:42.527Z,87.81
2023-02-27T04:21:56.064Z,87.92
2023-02-27T04:23:10.150Z,87.75
2023-02-27T04:24:11.398Z,88.16
2023-02-27T04:25:48.196Z,88.22
2023-02-27T04:27:09.770Z,88.11
2023-02-27T04:28:18.651Z,88.35
2023-02-27T04:29:23.175Z,88.30
2023-02-27T04:30:33.341Z,88.01
2023-02-27T04:31:42.187Z,87.88
2023-02-27T04:32:53.228Z,87.81
2023-02-27T04:34:00.643Z,87.99
2023-02-27T04:35:05.721Z,87.86
2023-02-27T04:36:13.006Z,88.46
2023-02-27T04:37:22.446Z,87.83
2023-02-27T04:38:34.615Z,87.79
2023-02-27T04:39:38.468Z,87.86
2023-02-27T04:40:43.344Z,88.18
2023-02-27T04:41:54.064Z,88.12
2023-02-27T04:42:57.091Z,87.53
2023-02-27T04:43:59.767Z,87.92
2023-02-27T04:45:04.857Z,88.08
2023-02-27T04:46:08.406Z,88.19
2023-02-27T04:47:11.627Z,88.07
2023-02-27T04:48:26.849Z,88.55
2023-02-27T04:49:30.905Z,88.60
2023-02-27T04:50:37.717Z,88.51
2023-02-27T04:51:44.123Z,88.74
2023-02-27T04:52:49.732Z,89.04
2023-02-27T04:53:58.102Z,89.01
2023-02-27T04:55:01.678Z,88.68
2023-02-27T04:56:09.791Z,88.65
2023-02-27T04:57:15.766Z,88.72
2023-02-27T04:58:40.348Z,89.02
2023-02-27T04:59:44.198Z,88.57
2023-02-27T05:00:47.645Z,88.49
2023-02-27T05:02:04.006Z,88.93
2023-02-27T05:03:09.481Z,89.43
2023-02-27T05:04:13.987Z,88.97
2023-02-27T05:05:17.693Z,89.31
2023-02-27T05:06:21.039Z,88.74
2023-02-27T05:07:25.501Z,89.44
2023-02-27T05:08:29.838Z,89.29
2023-02-27T05:09:35.398Z,88.94
2023-02-27T05:10:39.789Z,89.18
2023-02-27T05:11:47.864Z,89.02
2023-02-27T05:12:54.710Z,88.87
2023-02-27T05:13:58.778Z,89.20
2023-02-27T05:15:03.139Z,89.15
2023-02-27T05:16:12.476Z,88.56
2023-02-27T05:17:19.975Z,88.60
2023-02-27T05:18:21.789Z,88.43
2023-02-27T05:19:23.315Z,88.08
2023-02-27T05:20:29.754Z,88.25
2023-02-27T05:21:36.961Z,88.33
2023-02-27T05:22:56.481Z,88.52
2023-02-27T05:24:03.498Z,88.84
2023-02-27T05:25:10.763Z,88.94
2023-02-27T05:26:21.954Z,88.86
2023-02-27T05:27:26.044Z,88.90
2023-02-27T05:28:34.926Z,88.29
2023-02-27T05:29:43.451Z,88.23
2023-02-27T05:30:58.972Z,88.45
2023-02-27T05:32:07.072Z,89.17
2023-02-27T05:33:08.387Z,89.22
2023-02-27T05:34:16.881Z,88.97
2023-02-27T05:35:23.631Z,89.20
2023-02-27T05:36:28.400Z,89.29
2023-02-27T05:37:35.384Z,88.91
2023-02-27T05:38:39.805Z,88.76
2023-02-27T05:39:41.928Z,88.58
2023-02-27T05:41:07.408Z,89.24
2023-02-27T05:42:14.202Z,89.46
2023-02-27T05:43:18.560Z,89.41
2023-02-27T05:44:25.592Z,89.00
2023-02-27T05:45:29.188Z,88.56
2023-02-27T05:46:32.992Z,88.65
2023-02-27T05:47:36.243Z,88.43
2023-02-27T05:48:57.878Z,88.51
2023-02-27T05:50:28.687Z,88.62
2023-02-27T05:51:32.671Z,88.69
2023-02-27T05:52:34.463Z,89.35
2023-02-27T05:53:40.351Z,88.87
2023-02-27T05:54:41.582Z,88.70
2023-02-27T05:55:44.719Z,88.95
2023-02-27T05:56:49.003Z,89.18
2023-02-27T05:57:59.737Z,89.47
2023-02-27T05:59:04.810Z,89.08
2023-02-27T06:00:10.295Z,88.92
2023-02-27T06:01:14.446Z,89.30
2023-02-27T06:02:15.716Z,88.85
2023-02-27T06:03:17.309Z,88.51
2023-02-27T06:04:18.629Z,88.30
2023-02-27T06:05:19.866Z,88.82
2023-02-27T06:06:22.504Z,88.85
2023-02-27T06:07:23.713Z,88.18
2023-02-27T06:08:26.413Z,88.13
2023-02-27T06:09:27.681Z,88.06
2023-02-27T06:10:29.022Z,88.30
2023-02-27T06:11:30.238Z,88.53
2023-02-27T06:12:31.609Z,88.57
2023-02-27T06:13:32.879Z,88.33
2023-02-27T06:14:34.095Z,88.15
2023-02-27T06:15:35.329Z,88.42
2023-02-27T06:16:36.614Z,88.81
2023-02-27T06:17:38.142Z,88.72
2023-02-27T06:18:39.433Z,88.82
2023-02-27T06:19:40.686Z,88.94
2023-02-27T06:20:42.689Z,88.95
2023-02-27T06:21:43.960Z,88.92
2023-02-27T06:22:45.384Z,88.82
2023-02-27T06:23:46.657Z,88.61
2023-02-27T06:24:47.948Z,88.94
2023-02-27T06:25:49.282Z,89.14
2023-02-27T06:26:50.553Z,88.82
2023-02-27T06:27:51.994Z,88.89
2023-02-27T06:28:53.227Z,88.74
2023-02-27T06:29:54.472Z,88.96
2023-02-27T06:30:55.929Z,89.45
2023-02-27T06:31:57.337Z,89.03
2023-02-27T06:32:58.684Z,88.86
2023-02-27T06:33:59.965Z,89.01
2023-02-27T06:35:01.290Z,88.84
2023-02-27T06:36:02.565Z,88.95
2023-02-27T06:37:04.370Z,88.64
2023-02-27T06:38:05.695Z,88.55
2023-02-27T06:39:06.954Z,88.83
2023-02-27T06:40:08.559Z,88.53
2023-02-27T06:41:09.894Z,88.26
2023-02-27T06:42:11.111Z,88.51
2023-02-27T06:43:12.561Z,88.60
2023-02-27T06:44:13.786Z,88.72
2023-02-27T06:45:15.704Z,89.25
2023-02-27T06:46:17.006Z,88.68
2023-02-27T06:47:18.372Z,88.60
2023-02-27T06:48:19.603Z,88.75
2023-02-27T06:49:20.947Z,88.55
2023-02-27T06:50:22.245Z,88.39
2023-02-27T06:51:23.566Z,88.67
2023-02-27T06:52:25.029Z,88.39
2023-02-27T06:53:26.281Z,88.07
2023-02-27T06:54:27.479Z,88.41
2023-02-27T06:55:28.719Z,88.64
2023-02-27T06:56:29.972Z,88.25
2023-02-27T06:57:31.257Z,88.01
2023-02-27T06:58:32.507Z,88.43
2023-02-27T06:59:33.778Z,88.23
2023-02-27T07:00:35.036Z,87.72
2023-02-27T07:01:36.366Z,88.14
2023-02-27T07:02:37.700Z,87.99
2023-02-27T07:03:39.010Z,88.15
2023-02-27T07:04:40.291Z,88.15
2023-02-27T07:05:41.750Z,88.19
2023-02-27T07:07:32.399Z,87.36
2023-02-27T07:08:04.803Z,87.31
2023-02-27T07:09:07.058Z,87.66
2023-02-27T07:10:10.336Z,87.76
2023-02-27T07:11:11.577Z,87.54
2023-02-27T07:12:12.813Z,87.29
2023-02-27T07:13:16.875Z,87.53
2023-02-27T07:14:19.745Z,87.04
2023-02-27T07:15:21.042Z,87.10
2023-02-27T07:16:22.598Z,86.54
2023-02-27T07:17:23.839Z,86.24
2023-02-27T07:18:25.200Z,86.58
2023-02-27T07:19:26.596Z,86.69
2023-02-27T07:20:27.870Z,86.65
2023-02-27T07:21:29.168Z,86.24
2023-02-27T07:22:30.359Z,86.70
2023-02-27T07:23:31.622Z,86.24
2023-02-27T07:24:32.874Z,85.55
2023-02-27T07:25:34.096Z,85.24
2023-02-27T07:26:35.419Z,85.08
2023-02-27T07:27:36.641Z,84.64
2023-02-27T07:28:37.927Z,84.84
2023-02-27T07:29:39.305Z,84.64
2023-02-27T07:30:40.613Z,85.24
2023-02-27T07:31:41.891Z,84.61
2023-02-27T07:32:43.312Z,83.69
2023-02-27T07:33:44.625Z,83.45
2023-02-27T07:34:45.952Z,83.07
2023-02-27T07:35:47.406Z,83.70
2023-02-27T07:36:48.920Z,83.88
2023-02-27T07:37:50.329Z,82.98
2023-02-27T07:38:51.652Z,83.03
2023-02-27T07:39:52.938Z,82.67
2023-02-27T07:40:54.461Z,82.74
2023-02-27T07:41:55.717Z,82.37
2023-02-27T07:42:57.148Z,81.96
2023-02-27T07:43:58.344Z,81.90
2023-02-27T07:44:59.689Z,81.65
2023-02-27T07:46:00.908Z,81.08
2023-02-27T07:47:02.188Z,81.50
2023-02-27T07:48:03.645Z,81.52
2023-02-27T07:49:04.921Z,81.43
2023-02-27T07:50:06.578Z,81.45
2023-02-27T07:51:07.833Z,82.01
2023-02-27T07:52:09.026Z,81.50
2023-02-27T07:53:10.253Z,80.47
2023-02-27T07:54:11.555Z,80.10
2023-02-27T07:55:12.807Z,80.86
2023-02-27T07:56:14.027Z,81.05
2023-02-27T07:57:15.276Z,79.72
2023-02-27T07:58:16.579Z,80.63
2023-02-27T07:59:17.784Z,79.04
2023-02-27T08:00:19.236Z,79.20
2023-02-27T08:01:20.548Z,79.00
2023-02-27T08:02:21.829Z,79.18
2023-02-27T08:03:23.106Z,78.97
2023-02-27T08:04:24.434Z,79.85
2023-02-27T08:05:25.735Z,79.07
2023-02-27T08:06:27.270Z,79.05
2023-02-27T08:07:28.642Z,78.88
2023-02-27T08:08:29.873Z,79.05
2023-02-27T08:09:31.228Z,78.62
2023-02-27T08:10:32.509Z,78.22
2023-02-27T08:11:33.817Z,78.77
2023-02-27T08:12:35.033Z,78.54
2023-02-27T08:14:00.586Z,78.97
2023-02-27T08:14:57.505Z,77.14
2023-02-27T08:15:58.725Z,77.27
2023-02-27T08:16:59.975Z,77.18
2023-02-27T08:18:01.231Z,76.95
2023-02-27T08:19:02.468Z,76.47
2023-02-27T08:20:04.422Z,76.92
2023-02-27T08:21:05.724Z,76.88
2023-02-27T08:22:07.073Z,76.36
2023-02-27T08:23:08.259Z,75.62
2023-02-27T08:24:09.485Z,75.15
2023-02-27T08:25:11.137Z,75.89
2023-02-27T08:26:12.341Z,75.51
2023-02-27T08:27:13.530Z,75.49
2023-02-27T08:28:14.801Z,75.21
2023-02-27T08:29:17.074Z,75.44
2023-02-27T08:30:18.447Z,75.89
2023-02-27T08:31:19.966Z,75.47
2023-02-27T08:32:21.218Z,75.16
2023-02-27T08:33:22.736Z,73.93
2023-02-27T08:34:23.990Z,74.63
2023-02-27T08:35:25.224Z,75.19
2023-02-27T08:36:26.654Z,74.03
2023-02-27T08:37:28.783Z,74.62
2023-02-27T08:38:30.011Z,73.84
2023-02-27T08:39:31.204Z,73.41
2023-02-27T08:40:32.448Z,72.74
2023-02-27T08:41:33.916Z,73.04
2023-02-27T08:42:35.104Z,73.31
2023-02-27T08:43:36.399Z,72.56
2023-02-27T08:44:37.642Z,73.76
2023-02-27T08:45:38.928Z,73.06
2023-02-27T08:46:40.191Z,72.94
2023-02-27T08:47:41.385Z,72.25
2023-02-27T08:48:42.595Z,70.58
2023-02-27T08:49:43.799Z,71.73
2023-02-27T08:50:46.165Z,71.72
2023-02-27T08:51:47.702Z,71.11
2023-02-27T08:52:49.184Z,70.88
2023-02-27T08:53:50.372Z,71.51
2023-02-27T08:54:51.567Z,70.54
2023-02-27T08:55:52.844Z,70.47
2023-02-27T08:56:54.084Z,70.39
2023-02-27T08:57:55.320Z,70.31
2023-02-27T08:58:56.595Z,70.21
2023-02-27T08:59:57.863Z,69.52
2023-02-27T09:00:59.230Z,69.55
2023-02-27T09:02:00.504Z,69.50
2023-02-27T09:03:01.964Z,68.26
2023-02-27T09:04:03.859Z,69.50
2023-02-27T09:05:05.352Z,68.82
2023-02-27T09:06:06.667Z,68.41
2023-02-27T09:07:07.894Z,68.37
2023-02-27T09:08:09.219Z,68.00
2023-02-27T09:09:10.429Z,67.82
2023-02-27T09:10:12.006Z,66.99
2023-02-27T09:11:13.253Z,66.65
2023-02-27T09:12:14.509Z,66.42
2023-02-27T09:13:15.743Z,66.58
2023-02-27T09:14:17.040Z,65.94
2023-02-27T09:15:18.335Z,67.10
2023-02-27T09:16:20.650Z,67.40
2023-02-27T09:17:21.907Z,67.20
2023-02-27T09:18:23.256Z,66.82
2023-02-27T09:19:24.576Z,65.61
2023-02-27T09:20:25.812Z,66.04
2023-02-27T09:21:27.019Z,65.73
2023-02-27T09:22:28.206Z,65.95
2023-02-27T09:23:29.429Z,64.57
2023-02-27T09:24:30.669Z,64.00
2023-02-27T09:25:31.908Z,63.66
2023-02-27T09:26:44.300Z,64.69
2023-02-27T09:27:47.334Z,64.38
2023-02-27T09:28:48.569Z,64.03
2023-02-27T09:29:50.075Z,63.79
2023-02-27T09:30:51.313Z,63.97
2023-02-27T09:31:52.699Z,65.00
2023-02-27T09:32:54.164Z,64.36
2023-02-27T09:33:55.414Z,63.38
2023-02-27T09:34:56.683Z,63.26
2023-02-27T09:35:58.269Z,63.90
2023-02-27T09:36:59.968Z,62.60
2023-02-27T09:38:01.177Z,62.92
2023-02-27T09:39:02.624Z,63.63
2023-02-27T09:40:04.041Z,62.69
2023-02-27T09:41:06.025Z,63.01
2023-02-27T09:42:13.513Z,62.65
2023-02-27T09:43:28.952Z,62.80
2023-02-27T09:44:46.351Z,62.34
2023-02-27T09:45:52.666Z,63.26
2023-02-27T09:46:54.028Z,61.35
2023-02-27T09:48:00.393Z,62.11
2023-02-27T09:49:01.827Z,62.04
2023-02-27T09:50:03.055Z,62.67
2023-02-27T09:51:04.455Z,62.03
2023-02-27T09:52:05.697Z,61.97
2023-02-27T09:53:13.621Z,61.69
2023-02-27T09:54:14.936Z,61.78
2023-02-27T09:55:20.971Z,61.32
2023-02-27T09:56:24.162Z,61.87
2023-02-27T09:57:45.723Z,61.19
2023-02-27T09:59:18.579Z,61.02
2023-02-27T10:00:38.493Z,59.34
2023-02-27T10:01:55.648Z,60.05
2023-02-27T10:03:09.402Z,60.23
2023-02-27T10:04:25.856Z,60.46
2023-02-27T10:05:40.881Z,59.52
2023-02-27T10:06:50.368Z,58.91
2023-02-27T10:07:59.473Z,59.13
2023-02-27T10:09:22.811Z,59.51
2023-02-27T10:10:31.873Z,58.63
2023-02-27T10:11:39.879Z,58.40
2023-02-27T10:12:44.067Z,59.59
2023-02-27T10:13:57.330Z,58.21
2023-02-27T10:15:01.668Z,56.36
2023-02-27T10:16:03.383Z,57.34
2023-02-27T10:17:06.623Z,57.77
2023-02-27T10:18:25.537Z,58.05
2023-02-27T10:19:31.794Z,57.60
2023-02-27T10:20:37.761Z,58.65
2023-02-27T10:21:45.281Z,57.62
2023-02-27T10:22:46.986Z,57.54
2023-02-27T10:23:51.121Z,57.58
2023-02-27T10:24:54.807Z,57.32
2023-02-27T10:25:56.482Z,57.67
2023-02-27T10:26:59.009Z,56.65
2023-02-27T10:28:11.260Z,57.01
2023-02-27T10:29:31.949Z,57.32
2023-02-27T10:30:34.907Z,57.39
2023-02-27T10:31:36.540Z,57.03
2023-02-27T10:32:38.745Z,57.66
2023-02-27T10:33:41.885Z,57.26
2023-02-27T10:34:44.234Z,56.32
2023-02-27T10:35:45.552Z,56.38
2023-02-27T10:36:47.393Z,55.94
2023-02-27T10:37:50.472Z,55.63
2023-02-27T10:38:56.185Z,54.89
2023-02-27T10:39:59.901Z,55.02
2023-02-27T10:41:02.022Z,54.27
2023-02-27T10:42:06.053Z,53.76
2023-02-27T10:43:07.330Z,54.05
2023-02-27T10:44:10.674Z,54.19
2023-02-27T10:45:15.451Z,54.65
2023-02-27T10:46:24.835Z,54.23
2023-02-27T10:47:26.672Z,54.10
2023-02-27T10:48:27.945Z,54.15
2023-02-27T10:49:31.013Z,53.63
2023-02-27T10:50:33.987Z,52.89
2023-02-27T10:51:35.321Z,51.31
2023-02-27T10:52:48.232Z,50.91
2023-02-27T10:53:49.539Z,50.67
2023-02-27T10:54:50.705Z,50.21
2023-02-27T10:56:01.063Z,49.99
2023-02-27T10:57:04.033Z,49.82
2023-02-27T10:58:05.694Z,51.06
2023-02-27T10:59:07.909Z,51.24
2023-02-27T11:00:23.358Z,51.87
2023-02-27T11:01:24.830Z,50.87
2023-02-27T11:02:39.445Z,50.36
2023-02-27T11:03:41.753Z,50.99
2023-02-27T11:04:53.431Z,50.84
2023-02-27T11:06:33.593Z,51.74
2023-02-27T11:07:37.639Z,51.31
2023-02-27T11:08:39.108Z,50.48
2023-02-27T11:09:40.397Z,50.46
2023-02-27T11:10:53.662Z,49.91
2023-02-27T11:11:55.473Z,50.75
2023-02-27T11:13:06.645Z,51.08
2023-02-27T11:14:19.869Z,50.14
2023-02-27T11:15:23.533Z,49.09
2023-02-27T11:16:24.763Z,50.30
2023-02-27T11:17:27.992Z,50.41
2023-02-27T11:18:30.201Z,50.90
2023-02-27T11:19:33.169Z,50.37
2023-02-27T11:20:38.384Z,49.19
2023-02-27T11:21:39.600Z,48.36
2023-02-27T11:22:40.836Z,48.62
2023-02-27T11:23:51.281Z,48.81
2023-02-27T11:24:52.881Z,49.06
2023-02-27T11:26:09.334Z,48.68
2023-02-27T11:27:39.729Z,48.54
2023-02-27T11:28:41.320Z,49.00
2023-02-27T11:29:54.885Z,48.90
2023-02-27T11:31:03.893Z,48.88
2023-02-27T11:32:11.610Z,48.82
2023-02-27T11:33:18.330Z,48.82
2023-02-27T11:34:22.100Z,48.77
2023-02-27T11:35:26.419Z,48.82
2023-02-27T11:36:47.461Z,49.08
2023-02-27T11:37:49.682Z,48.77
2023-02-27T11:38:52.875Z,49.39
2023-02-27T11:40:09.799Z,49.39
2023-02-27T11:41:11.601Z,49.48
2023-02-27T11:42:39.309Z,48.95
2023-02-27T11:43:46.662Z,48.82
2023-02-27T11:44:53.770Z,48.44
2023-02-27T11:46:14.612Z,49.75
2023-02-27T11:47:27.112Z,49.82
2023-02-27T11:48:30.644Z,50.47
2023-02-27T11:49:34.542Z,50.67
2023-02-27T11:50:35.777Z,50.11
2023-02-27T11:51:37.024Z,50.73
2023-02-27T11:52:53.855Z,49.59
2023-02-27T11:54:13.814Z,49.78
2023-02-27T11:55:17.493Z,50.30
2023-02-27T11:56:22.712Z,50.44
2023-02-27T11:57:33.055Z,51.12
2023-02-27T11:58:43.761Z,50.97
2023-02-27T11:59:51.227Z,51.06
2023-02-27T12:00:57.095Z,50.93
2023-02-27T12:02:05.118Z,51.42
2023-02-27T12:03:18.464Z,51.18
2023-02-27T12:04:19.684Z,51.58
2023-02-27T12:05:24.634Z,51.18
2023-02-27T12:06:32.504Z,51.37
2023-02-27T12:07:38.511Z,51.66
2023-02-27T12:08:43.375Z,51.78
2023-02-27T12:10:07.837Z,51.34
2023-02-27T12:11:28.682Z,52.19
2023-02-27T12:12:40.601Z,51.98
2023-02-27T12:13:45.614Z,52.00
2023-02-27T12:14:57.234Z,52.64
2023-02-27T12:16:02.849Z,52.66
2023-02-27T12:17:09.723Z,52.59
2023-02-27T12:18:10.955Z,52.51
2023-02-27T12:19:15.186Z,52.75
2023-02-27T12:20:26.588Z,52.18
2023-02-27T12:21:30.478Z,52.45
2023-02-27T12:22:34.665Z,52.73
2023-02-27T12:23:39.132Z,52.31
2023-02-27T12:24:44.251Z,52.37
2023-02-27T12:26:11.810Z,52.25
2023-02-27T12:27:18.079Z,53.25
2023-02-27T12:28:22.083Z,52.86
2023-02-27T12:29:44.036Z,53.31
2023-02-27T12:30:51.323Z,53.62
2023-02-27T12:31:53.830Z,53.59
2023-02-27T12:33:03.345Z,53.93
2023-02-27T12:34:24.839Z,53.40
2023-02-27T12:35:29.217Z,53.46
2023-02-27T12:36:31.017Z,53.82
2023-02-27T12:37:32.280Z,53.24
2023-02-27T12:38:35.950Z,53.46
2023-02-27T12:39:37.806Z,54.02
2023-02-27T12:40:51.139Z,53.50
2023-02-27T12:42:01.425Z,52.60
2023-02-27T12:43:11.910Z,52.54
2023-02-27T12:44:27.206Z,52.37
2023-02-27T12:45:28.452Z,52.58
2023-02-27T12:46:33.547Z,52.13
2023-02-27T12:47:43.780Z,52.13
2023-02-27T12:49:00.406Z,52.80
2023-02-27T12:50:12.527Z,51.93
2023-02-27T12:51:29.138Z,51.92
2023-02-27T12:52:49.570Z,52.60
2023-02-27T12:53:59.515Z,52.70
2023-02-27T12:55:15.064Z,52.91
2023-02-27T12:56:17.579Z,52.33
2023-02-27T12:57:24.742Z,52.33
2023-02-27T12:58:44.786Z,52.27
2023-02-27T13:00:05.596Z,52.23
2023-02-27T13:01:18.859Z,52.54
2023-02-27T13:02:29.183Z,51.37
2023-02-27T13:03:46.353Z,51.85
2023-02-27T13:04:54.419Z,51.33
2023-02-27T13:05:58.528Z,51.55
2023-02-27T13:07:01.644Z,51.61
2023-02-27T13:08:22.123Z,50.45
2023-02-27T13:09:44.235Z,50.12
2023-02-27T13:10:50.528Z,51.65
2023-02-27T13:11:57.813Z,51.13
2023-02-27T13:13:03.295Z,51.85
2023-02-27T13:14:16.181Z,51.41
2023-02-27T13:15:27.651Z,51.46
2023-02-27T13:16:55.315Z,50.99
2023-02-27T13:18:23.675Z,51.29
2023-02-27T13:19:32.013Z,51.50
2023-02-27T13:20:38.522Z,52.01
2023-02-27T13:21:43.486Z,51.76
2023-02-27T13:22:44.718Z,51.42
2023-02-27T13:23:55.222Z,51.23
2023-02-27T13:24:59.042Z,52.12
2023-02-27T13:26:01.321Z,52.24
2023-02-27T13:27:06.435Z,51.65
2023-02-27T13:28:13.141Z,51.83
2023-02-27T13:29:15.768Z,51.25
2023-02-27T13:30:29.444Z,52.04
2023-02-27T13:31:31.233Z,51.95
2023-02-27T13:32:43.526Z,51.79
2023-02-27T13:33:45.966Z,51.31
2023-02-27T13:34:52.925Z,51.02
2023-02-27T13:36:01.726Z,51.63
2023-02-27T13:37:04.936Z,51.55
2023-02-27T13:38:26.193Z,51.70
2023-02-27T13:39:36.191Z,51.23
2023-02-27T13:40:39.024Z,51.39
2023-02-27T13:41:40.237Z,50.56
2023-02-27T13:42:44.414Z,51.56
2023-02-27T13:43:53.299Z,51.35
2023-02-27T13:44:55.612Z,51.02
2023-02-27T13:45:58.332Z,51.12
2023-02-27T13:47:19.653Z,51.21
2023-02-27T13:48:40.364Z,51.13
2023-02-27T13:49:44.462Z,51.74
2023-02-27T13:50:45.720Z,51.06
2023-02-27T13:51:48.194Z,50.84
2023-02-27T13:52:49.740Z,50.94
2023-02-27T13:54:06.217Z,50.80
2023-02-27T13:55:24.497Z,50.67
2023-02-27T13:56:25.988Z,50.37
2023-02-27T13:57:28.953Z,50.99
2023-02-27T13:58:30.186Z,50.52
2023-02-27T13:59:42.286Z,50.38
2023-02-27T14:00:53.433Z,49.71
2023-02-27T14:01:58.753Z,49.75
2023-02-27T14:03:08.834Z,50.35
2023-02-27T14:04:18.114Z,50.09